createdAt,value
2019-05-17T00:02:26.745Z,80.86
2019-05-17T00:07:30.060Z,80.73
2019-05-17T00:12:33.364Z,80.26
2019-05-17T00:17:37.704Z,80.36
2019-05-17T00:22:41.196Z,82.89
2019-05-17T00:27:44.640Z,81.99
2019-05-17T00:32:48.619Z,81.11
2019-05-17T00:37:57.100Z,80.49
2019-05-17T00:43:00.405Z,80.60
2019-05-17T00:48:06.291Z,80.18
2019-05-17T00:53:08.995Z,81.06
2019-05-17T00:58:12.276Z,80.84
2019-05-17T01:03:16.295Z,81.03
2019-05-17T01:08:19.716Z,81.39
2019-05-17T01:13:23.010Z,81.56
2019-05-17T01:18:27.220Z,81.64
2019-05-17T01:23:30.883Z,81.48
2019-05-17T01:28:36.208Z,81.71
2019-05-17T01:33:39.314Z,82.55
2019-05-17T01:38:42.618Z,81.33
2019-05-17T01:43:47.453Z,81.50
2019-05-17T01:48:50.831Z,81.12
2019-05-17T01:53:54.127Z,81.02
2019-05-17T01:58:57.620Z,81.16
2019-05-17T02:04:00.982Z,80.66
2019-05-17T02:09:06.460Z,80.56
2019-05-17T02:14:09.695Z,81.21
2019-05-17T02:19:13.024Z,82.06
2019-05-17T02:24:16.988Z,81.45
2019-05-17T02:29:21.473Z,80.62
2019-05-17T02:34:24.804Z,81.22
2019-05-17T02:39:28.095Z,80.65
2019-05-17T02:44:33.559Z,81.12
2019-05-17T02:49:36.390Z,81.16
2019-05-17T02:54:39.700Z,80.70
2019-05-17T02:59:43.378Z,80.57
2019-05-17T03:04:46.784Z,80.69
2019-05-17T03:09:53.199Z,81.01
2019-05-17T03:14:55.121Z,80.91
2019-05-17T03:19:58.424Z,81.10
2019-05-17T03:25:03.309Z,80.75
2019-05-17T03:30:07.481Z,82.10
2019-05-17T03:35:16.865Z,80.92
2019-05-17T03:40:35.167Z,81.74
2019-05-17T03:45:22.794Z,80.95
2019-05-17T03:50:26.315Z,80.89
2019-05-17T03:55:32.798Z,80.78
2019-05-17T04:00:35.552Z,83.80
2019-05-17T04:05:42.658Z,83.40
2019-05-17T04:10:44.033Z,81.73
2019-05-17T04:15:47.321Z,81.58
2019-05-17T04:20:52.782Z,82.95
2019-05-17T04:25:55.649Z,82.83
2019-05-17T04:30:58.949Z,82.86
2019-05-17T04:36:02.842Z,81.20
2019-05-17T04:41:06.243Z,83.81
2019-05-17T04:46:12.719Z,81.75
2019-05-17T04:51:14.613Z,82.53
2019-05-17T04:56:17.880Z,83.07
2019-05-17T05:01:23.617Z,83.29
2019-05-17T05:06:26.195Z,82.37
2019-05-17T05:11:32.607Z,83.79
2019-05-17T05:16:34.523Z,83.60
2019-05-17T05:21:37.825Z,81.68
2019-05-17T05:26:42.454Z,82.18
2019-05-17T05:31:45.915Z,82.70
2019-05-17T05:36:49.196Z,81.81
2019-05-17T05:42:05.108Z,81.77
2019-05-17T05:46:57.500Z,80.59
2019-05-17T05:52:01.932Z,81.38
2019-05-17T05:57:05.437Z,80.20
2019-05-17T06:02:08.755Z,79.88
2019-05-17T06:07:12.842Z,79.01
2019-05-17T06:12:23.771Z,77.20
2019-05-17T06:17:21.690Z,76.53
2019-05-17T06:22:25.021Z,76.01
2019-05-17T06:27:28.304Z,74.04
2019-05-17T06:32:31.803Z,74.08
2019-05-17T06:37:35.093Z,74.77
2019-05-17T06:42:44.131Z,75.52
2019-05-17T06:47:43.441Z,74.43
2019-05-17T06:52:47.725Z,74.33
2019-05-17T06:57:52.756Z,74.13
2019-05-17T07:02:56.090Z,72.86
2019-05-17T07:08:00.271Z,70.00
2019-05-17T07:13:03.669Z,69.00
2019-05-17T07:18:06.990Z,67.79
2019-05-17T07:23:10.877Z,69.33
2019-05-17T07:28:14.339Z,67.46
2019-05-17T07:33:19.777Z,67.47
2019-05-17T07:38:22.700Z,68.23
2019-05-17T07:43:25.994Z,66.94
2019-05-17T07:48:31.403Z,65.94
2019-05-17T07:53:34.343Z,63.93
2019-05-17T07:58:37.645Z,59.21
2019-05-17T08:03:40.957Z,61.56
2019-05-17T08:08:45.234Z,61.59
2019-05-17T08:13:50.538Z,61.70
2019-05-17T08:18:55.598Z,59.69
2019-05-17T08:24:00.122Z,59.75
2019-05-17T08:29:03.567Z,58.52
2019-05-17T08:34:07.049Z,59.00
2019-05-17T08:39:10.453Z,58.42
2019-05-17T08:44:13.727Z,58.05
2019-05-17T08:49:17.029Z,58.47
2019-05-17T08:54:20.315Z,59.23
2019-05-17T08:59:23.605Z,58.84
2019-05-17T09:04:27.020Z,58.61
2019-05-17T09:09:31.555Z,57.70
2019-05-17T09:14:34.954Z,57.06
2019-05-17T09:19:39.491Z,57.13
2019-05-17T09:24:42.940Z,57.00
2019-05-17T09:29:46.237Z,57.04
2019-05-17T09:34:49.914Z,57.89
2019-05-17T09:39:53.482Z,56.66
2019-05-17T09:44:56.813Z,57.58
2019-05-17T09:50:00.603Z,56.50
2019-05-17T09:55:05.331Z,54.77
2019-05-17T10:00:09.889Z,55.47
2019-05-17T10:05:13.699Z,57.23
2019-05-17T10:10:17.067Z,56.21
2019-05-17T10:15:20.805Z,55.15
2019-05-17T10:20:24.267Z,53.49
2019-05-17T10:25:29.474Z,55.25
2019-05-17T10:30:32.580Z,55.03
2019-05-17T10:35:35.907Z,54.26
2019-05-17T10:40:40.867Z,55.98
2019-05-17T10:45:44.675Z,53.52
2019-05-17T10:50:49.698Z,53.03
2019-05-17T10:55:53.159Z,52.81
2019-05-17T11:00:56.464Z,52.88
2019-05-17T11:05:59.999Z,51.84
2019-05-17T11:11:03.346Z,50.93
2019-05-17T11:16:06.641Z,51.89
2019-05-17T11:21:10.131Z,52.33
2019-05-17T11:26:13.465Z,55.06
2019-05-17T11:31:16.758Z,50.46
2019-05-17T11:36:20.091Z,51.13
2019-05-17T11:41:23.395Z,50.39
2019-05-17T11:46:35.925Z,51.84
2019-05-17T11:51:31.749Z,50.66
2019-05-17T11:56:35.049Z,51.01
2019-05-17T12:01:38.382Z,49.52
2019-05-17T12:06:41.837Z,49.30
2019-05-17T12:11:45.150Z,49.57
2019-05-17T12:16:48.473Z,49.87
2019-05-17T12:21:51.807Z,49.80
2019-05-17T12:26:55.122Z,49.30
2019-05-17T12:31:58.431Z,49.13
2019-05-17T12:37:01.740Z,50.43
2019-05-17T12:42:05.182Z,47.27
2019-05-17T12:47:08.520Z,47.44
2019-05-17T12:52:11.873Z,46.25
2019-05-17T12:57:15.183Z,46.74
2019-05-17T13:02:18.508Z,49.63
2019-05-17T13:07:21.805Z,47.52
2019-05-17T13:12:25.104Z,46.95
2019-05-17T13:17:28.408Z,46.42
2019-05-17T13:22:31.717Z,46.13
2019-05-17T13:27:38.554Z,46.09
2019-05-17T13:32:40.029Z,45.64
2019-05-17T13:37:43.325Z,45.55
2019-05-17T13:42:46.695Z,45.67
2019-05-17T13:47:50.058Z,44.08
2019-05-17T13:52:53.325Z,47.09
2019-05-17T13:57:56.614Z,43.17
2019-05-17T14:02:59.929Z,42.80
2019-05-17T14:08:03.225Z,44.77
2019-05-17T14:13:06.529Z,43.73
2019-05-17T14:18:09.812Z,40.64
2019-05-17T14:23:13.129Z,41.02
2019-05-17T14:28:16.521Z,43.02
2019-05-17T14:33:19.824Z,43.54
2019-05-17T14:38:23.132Z,40.44
2019-05-17T14:43:26.434Z,40.63
2019-05-17T14:48:29.714Z,40.41
2019-05-17T14:53:33.020Z,41.38
2019-05-17T14:58:36.319Z,40.32
2019-05-17T15:03:39.650Z,40.42
2019-05-17T15:08:42.940Z,40.50
2019-05-17T15:13:46.252Z,39.63
2019-05-17T15:18:49.575Z,37.53
2019-05-17T15:23:52.868Z,41.49
2019-05-17T15:28:56.172Z,42.91
2019-05-17T15:33:59.479Z,41.76
2019-05-17T15:39:02.827Z,40.71
2019-05-17T15:44:06.183Z,40.61
2019-05-17T15:49:09.438Z,39.32
2019-05-17T15:54:12.798Z,40.77
2019-05-17T15:59:16.105Z,41.74
2019-05-17T16:04:19.388Z,39.38
2019-05-17T16:09:22.983Z,41.76
2019-05-17T16:14:26.390Z,40.70
2019-05-17T16:19:29.709Z,40.51
2019-05-17T16:24:33.006Z,41.46
2019-05-17T16:29:36.299Z,42.25
2019-05-17T16:34:39.661Z,40.89
2019-05-17T16:39:42.982Z,42.03
2019-05-17T16:44:46.264Z,42.75
2019-05-17T16:49:49.578Z,42.40
2019-05-17T16:54:52.901Z,42.95
2019-05-17T16:59:56.197Z,43.72
2019-05-17T17:04:59.504Z,43.88
2019-05-17T17:10:02.797Z,45.29
2019-05-17T17:15:06.878Z,43.68
2019-05-17T17:20:11.198Z,44.09
2019-05-17T17:25:14.605Z,46.74
2019-05-17T17:30:17.978Z,46.17
2019-05-17T17:35:21.390Z,47.63
2019-05-17T17:40:24.948Z,47.70
2019-05-17T17:45:28.309Z,49.32
2019-05-17T17:50:31.686Z,49.19
2019-05-17T17:55:35.923Z,49.60
2019-05-17T18:00:39.238Z,50.28
2019-05-17T18:05:43.238Z,49.23
2019-05-17T18:10:46.822Z,50.21
2019-05-17T18:15:50.541Z,51.51
2019-05-17T18:20:53.820Z,52.82
2019-05-17T18:25:57.119Z,51.28
2019-05-17T18:31:00.453Z,52.00
2019-05-17T18:36:03.818Z,52.12
2019-05-17T18:41:07.234Z,52.31
2019-05-17T18:46:11.490Z,52.63
2019-05-17T18:51:14.818Z,53.24
2019-05-17T18:56:18.149Z,53.54
2019-05-17T19:01:21.433Z,53.98
2019-05-17T19:06:24.794Z,54.36
2019-05-17T19:11:28.097Z,54.81
2019-05-17T19:16:32.421Z,54.88
2019-05-17T19:21:35.710Z,55.33
2019-05-17T19:26:39.017Z,55.54
2019-05-17T19:31:42.378Z,55.83
2019-05-17T19:36:45.728Z,56.07
2019-05-17T19:41:49.056Z,56.24
2019-05-17T19:46:52.361Z,57.26
2019-05-17T19:51:55.649Z,57.36
2019-05-17T19:56:58.964Z,57.17
2019-05-17T20:02:02.315Z,57.67
2019-05-17T20:07:06.593Z,58.95
2019-05-17T20:12:09.878Z,59.44
2019-05-17T20:17:13.247Z,60.27
2019-05-17T20:22:16.536Z,59.42
2019-05-17T20:27:19.827Z,60.80
2019-05-17T20:32:23.115Z,61.80
2019-05-17T20:37:26.450Z,60.72
2019-05-17T20:42:29.751Z,62.69
2019-05-17T20:47:33.051Z,62.43
2019-05-17T20:52:36.420Z,62.57
2019-05-17T20:57:39.791Z,63.21
2019-05-17T21:02:43.120Z,63.47
2019-05-17T21:07:46.934Z,63.58
2019-05-17T21:12:50.282Z,63.90
2019-05-17T21:17:53.580Z,63.43
2019-05-17T21:22:56.883Z,63.55
2019-05-17T21:28:00.223Z,65.49
2019-05-17T21:33:03.533Z,64.25
2019-05-17T21:38:07.148Z,62.79
2019-05-17T21:43:10.540Z,65.66
2019-05-17T21:48:13.826Z,63.64
2019-05-17T21:53:17.126Z,66.66
2019-05-17T21:58:20.621Z,65.41
2019-05-17T22:03:23.869Z,64.57
2019-05-17T22:08:27.166Z,65.78
2019-05-17T22:13:30.449Z,64.74
2019-05-17T22:18:33.743Z,68.90
2019-05-17T22:23:37.033Z,67.09
2019-05-17T22:28:40.496Z,66.50
2019-05-17T22:33:43.857Z,66.34
2019-05-17T22:38:47.143Z,68.44
2019-05-17T22:43:50.459Z,66.74
2019-05-17T22:48:53.764Z,67.19
2019-05-17T22:53:57.077Z,68.93
2019-05-17T22:59:00.377Z,67.75
2019-05-17T23:04:03.662Z,67.59
2019-05-17T23:09:07.963Z,69.95
2019-05-17T23:14:12.282Z,70.38
2019-05-17T23:19:15.585Z,68.29
2019-05-17T23:24:18.877Z,68.47
2019-05-17T23:29:22.309Z,68.94
2019-05-17T23:34:25.646Z,69.27
2019-05-17T23:39:28.935Z,69.84
2019-05-17T23:44:32.233Z,69.07
2019-05-17T23:49:35.537Z,70.53
2019-05-17T23:54:38.822Z,71.47
2019-05-17T23:59:42.119Z,70.06
